sensor_id;sensor_type;location;lat;lon;timestamp;P1;durP1;ratioP1;P2;durP2;ratioP2
69305;SDS011;56427;51.580;4.656;2022-08-07T00:00:56;6.83;;;3.50;;
69305;SDS011;56427;51.580;4.656;2022-08-07T00:03:21;5.73;;;3.40;;
69305;SDS011;56427;51.580;4.656;2022-08-07T00:05:48;8.10;;;3.83;;
69305;SDS011;56427;51.580;4.656;2022-08-07T00:08:16;6.50;;;3.90;;
69305;SDS011;56427;51.580;4.656;2022-08-07T00:10:42;7.87;;;3.93;;
69305;SDS011;56427;51.580;4.656;2022-08-07T00:13:07;6.50;;;4.20;;
69305;SDS011;56427;51.580;4.656;2022-08-07T00:15:32;5.50;;;3.77;;
69305;SDS011;56427;51.580;4.656;2022-08-07T00:17:58;8.43;;;3.60;;
69305;SDS011;56427;51.580;4.656;2022-08-07T00:20:23;7.33;;;4.00;;
69305;SDS011;56427;51.580;4.656;2022-08-07T00:22:49;7.35;;;3.97;;
69305;SDS011;56427;51.580;4.656;2022-08-07T00:25:14;7.33;;;3.73;;
69305;SDS011;56427;51.580;4.656;2022-08-07T00:31:42;6.50;;;3.45;;
69305;SDS011;56427;51.580;4.656;2022-08-07T00:34:07;7.87;;;3.97;;
69305;SDS011;56427;51.580;4.656;2022-08-07T00:36:33;8.57;;;4.13;;
69305;SDS011;56427;51.580;4.656;2022-08-07T00:38:58;6.27;;;3.87;;
69305;SDS011;56427;51.580;4.656;2022-08-07T00:41:24;8.73;;;4.23;;
69305;SDS011;56427;51.580;4.656;2022-08-07T00:43:51;7.60;;;4.57;;
69305;SDS011;56427;51.580;4.656;2022-08-07T00:46:16;7.27;;;4.53;;
69305;SDS011;56427;51.580;4.656;2022-08-07T00:48:42;9.20;;;4.50;;
69305;SDS011;56427;51.580;4.656;2022-08-07T00:51:07;7.37;;;5.03;;
69305;SDS011;56427;51.580;4.656;2022-08-07T00:55:31;7.25;;;4.47;;
69305;SDS011;56427;51.580;4.656;2022-08-07T00:57:57;8.57;;;4.80;;
69305;SDS011;56427;51.580;4.656;2022-08-07T01:00:22;8.20;;;4.50;;
69305;SDS011;56427;51.580;4.656;2022-08-07T01:02:48;6.95;;;4.53;;
69305;SDS011;56427;51.580;4.656;2022-08-07T01:05:14;10.30;;;5.00;;
69305;SDS011;56427;51.580;4.656;2022-08-07T01:07:40;9.27;;;4.88;;
69305;SDS011;56427;51.580;4.656;2022-08-07T01:10:06;8.07;;;4.87;;
69305;SDS011;56427;51.580;4.656;2022-08-07T01:12:32;6.25;;;4.47;;
69305;SDS011;56427;51.580;4.656;2022-08-07T01:14:58;11.02;;;5.18;;
69305;SDS011;56427;51.580;4.656;2022-08-07T01:17:24;8.37;;;5.10;;
69305;SDS011;56427;51.580;4.656;2022-08-07T01:19:50;8.20;;;5.22;;
69305;SDS011;56427;51.580;4.656;2022-08-07T01:22:19;8.15;;;5.32;;
69305;SDS011;56427;51.580;4.656;2022-08-07T01:24:46;7.13;;;4.82;;
69305;SDS011;56427;51.580;4.656;2022-08-07T01:27:12;8.87;;;5.33;;
69305;SDS011;56427;51.580;4.656;2022-08-07T01:29:37;9.38;;;5.28;;
69305;SDS011;56427;51.580;4.656;2022-08-07T01:32:03;7.20;;;4.97;;
69305;SDS011;56427;51.580;4.656;2022-08-07T01:34:30;9.15;;;5.40;;
69305;SDS011;56427;51.580;4.656;2022-08-07T01:36:56;8.75;;;5.95;;
69305;SDS011;56427;51.580;4.656;2022-08-07T01:39:22;10.60;;;6.50;;
69305;SDS011;56427;51.580;4.656;2022-08-07T01:41:47;12.03;;;6.57;;
69305;SDS011;56427;51.580;4.656;2022-08-07T01:44:13;9.00;;;5.83;;
69305;SDS011;56427;51.580;4.656;2022-08-07T01:46:39;8.40;;;5.38;;
69305;SDS011;56427;51.580;4.656;2022-08-07T01:49:05;7.60;;;5.50;;
69305;SDS011;56427;51.580;4.656;2022-08-07T01:51:31;8.67;;;5.50;;
69305;SDS011;56427;51.580;4.656;2022-08-07T01:53:57;9.17;;;5.30;;
69305;SDS011;56427;51.580;4.656;2022-08-07T01:56:28;6.53;;;4.90;;
69305;SDS011;56427;51.580;4.656;2022-08-07T01:59:00;8.75;;;4.68;;
69305;SDS011;56427;51.580;4.656;2022-08-07T02:01:32;11.68;;;4.88;;
69305;SDS011;56427;51.580;4.656;2022-08-07T02:04:48;7.45;;;4.65;;
69305;SDS011;56427;51.580;4.656;2022-08-07T02:07:12;8.07;;;5.40;;
69305;SDS011;56427;51.580;4.656;2022-08-07T02:09:40;10.82;;;5.95;;
69305;SDS011;56427;51.580;4.656;2022-08-07T02:12:09;10.82;;;6.88;;
69305;SDS011;56427;51.580;4.656;2022-08-07T02:14:46;8.00;;;6.20;;
69305;SDS011;56427;51.580;4.656;2022-08-07T02:17:15;10.93;;;6.47;;
69305;SDS011;56427;51.580;4.656;2022-08-07T02:19:42;8.77;;;6.30;;
69305;SDS011;56427;51.580;4.656;2022-08-07T02:22:10;8.45;;;5.43;;
69305;SDS011;56427;51.580;4.656;2022-08-07T02:24:38;10.10;;;5.95;;
69305;SDS011;56427;51.580;4.656;2022-08-07T02:27:06;8.73;;;5.93;;
69305;SDS011;56427;51.580;4.656;2022-08-07T02:29:33;9.50;;;6.38;;
69305;SDS011;56427;51.580;4.656;2022-08-07T02:32:00;10.37;;;5.80;;
69305;SDS011;56427;51.580;4.656;2022-08-07T02:34:27;8.02;;;5.50;;
69305;SDS011;56427;51.580;4.656;2022-08-07T02:36:54;12.57;;;6.18;;
69305;SDS011;56427;51.580;4.656;2022-08-07T02:39:22;8.65;;;5.68;;
69305;SDS011;56427;51.580;4.656;2022-08-07T02:41:49;9.70;;;6.22;;
69305;SDS011;56427;51.580;4.656;2022-08-07T02:44:16;8.40;;;6.17;;
69305;SDS011;56427;51.580;4.656;2022-08-07T02:46:42;8.15;;;5.60;;
69305;SDS011;56427;51.580;4.656;2022-08-07T02:49:11;8.27;;;6.00;;
69305;SDS011;56427;51.580;4.656;2022-08-07T02:51:37;10.30;;;6.90;;
69305;SDS011;56427;51.580;4.656;2022-08-07T02:54:04;10.27;;;6.05;;
69305;SDS011;56427;51.580;4.656;2022-08-07T02:56:33;10.20;;;6.18;;
69305;SDS011;56427;51.580;4.656;2022-08-07T02:59:03;9.10;;;6.15;;
69305;SDS011;56427;51.580;4.656;2022-08-07T03:01:33;10.27;;;6.45;;
69305;SDS011;56427;51.580;4.656;2022-08-07T03:04:03;10.37;;;5.93;;
69305;SDS011;56427;51.580;4.656;2022-08-07T03:06:30;8.90;;;6.55;;
69305;SDS011;56427;51.580;4.656;2022-08-07T03:08:57;9.48;;;6.60;;
69305;SDS011;56427;51.580;4.656;2022-08-07T03:11:22;9.00;;;6.40;;
69305;SDS011;56427;51.580;4.656;2022-08-07T03:13:47;12.20;;;7.03;;
69305;SDS011;56427;51.580;4.656;2022-08-07T03:16:13;12.05;;;7.63;;
69305;SDS011;56427;51.580;4.656;2022-08-07T03:18:40;11.15;;;6.45;;
69305;SDS011;56427;51.580;4.656;2022-08-07T03:21:05;9.27;;;6.17;;
69305;SDS011;56427;51.580;4.656;2022-08-07T03:23:31;8.82;;;6.13;;
69305;SDS011;56427;51.580;4.656;2022-08-07T03:25:57;9.17;;;6.17;;
69305;SDS011;56427;51.580;4.656;2022-08-07T03:28:26;9.43;;;6.53;;
69305;SDS011;56427;51.580;4.656;2022-08-07T03:30:53;10.93;;;7.03;;
69305;SDS011;56427;51.580;4.656;2022-08-07T03:33:40;9.77;;;6.63;;
69305;SDS011;56427;51.580;4.656;2022-08-07T03:36:08;9.73;;;7.10;;
69305;SDS011;56427;51.580;4.656;2022-08-07T03:38:35;11.43;;;7.27;;
69305;SDS011;56427;51.580;4.656;2022-08-07T03:41:03;11.90;;;7.72;;
69305;SDS011;56427;51.580;4.656;2022-08-07T03:43:29;9.02;;;6.43;;
69305;SDS011;56427;51.580;4.656;2022-08-07T03:45:55;9.90;;;6.70;;
69305;SDS011;56427;51.580;4.656;2022-08-07T03:48:20;11.38;;;7.53;;
69305;SDS011;56427;51.580;4.656;2022-08-07T03:50:46;10.53;;;7.37;;
69305;SDS011;56427;51.580;4.656;2022-08-07T03:53:13;11.82;;;6.90;;
69305;SDS011;56427;51.580;4.656;2022-08-07T03:55:39;12.18;;;6.85;;
69305;SDS011;56427;51.580;4.656;2022-08-07T03:58:06;10.05;;;6.93;;
69305;SDS011;56427;51.580;4.656;2022-08-07T04:00:32;11.07;;;7.07;;
69305;SDS011;56427;51.580;4.656;2022-08-07T04:02:58;9.25;;;6.63;;
69305;SDS011;56427;51.580;4.656;2022-08-07T04:05:24;10.98;;;7.30;;
69305;SDS011;56427;51.580;4.656;2022-08-07T04:07:50;9.93;;;6.90;;
69305;SDS011;56427;51.580;4.656;2022-08-07T04:10:15;11.20;;;7.10;;
69305;SDS011;56427;51.580;4.656;2022-08-07T04:12:41;8.77;;;6.90;;
69305;SDS011;56427;51.580;4.656;2022-08-07T04:15:06;9.55;;;6.47;;
69305;SDS011;56427;51.580;4.656;2022-08-07T04:17:33;9.98;;;7.28;;
69305;SDS011;56427;51.580;4.656;2022-08-07T04:19:58;12.80;;;8.07;;
69305;SDS011;56427;51.580;4.656;2022-08-07T04:22:24;10.27;;;7.23;;
69305;SDS011;56427;51.580;4.656;2022-08-07T04:24:50;8.95;;;6.50;;
69305;SDS011;56427;51.580;4.656;2022-08-07T04:27:15;10.17;;;7.67;;
69305;SDS011;56427;51.580;4.656;2022-08-07T04:29:42;9.55;;;7.10;;
69305;SDS011;56427;51.580;4.656;2022-08-07T04:32:08;11.27;;;7.70;;
69305;SDS011;56427;51.580;4.656;2022-08-07T04:34:33;11.32;;;7.93;;
69305;SDS011;56427;51.580;4.656;2022-08-07T04:36:59;11.67;;;7.70;;
69305;SDS011;56427;51.580;4.656;2022-08-07T04:39:25;13.18;;;7.85;;
69305;SDS011;56427;51.580;4.656;2022-08-07T04:41:50;10.90;;;7.70;;
69305;SDS011;56427;51.580;4.656;2022-08-07T04:44:15;12.00;;;7.90;;
69305;SDS011;56427;51.580;4.656;2022-08-07T04:46:45;12.87;;;7.27;;
69305;SDS011;56427;51.580;4.656;2022-08-07T04:49:29;12.48;;;7.63;;
69305;SDS011;56427;51.580;4.656;2022-08-07T04:52:20;12.52;;;6.90;;
69305;SDS011;56427;51.580;4.656;2022-08-07T04:58:09;9.18;;;6.22;;
69305;SDS011;56427;51.580;4.656;2022-08-07T05:00:59;9.47;;;6.50;;
69305;SDS011;56427;51.580;4.656;2022-08-07T05:03:36;10.05;;;6.05;;
69305;SDS011;56427;51.580;4.656;2022-08-07T05:06:10;9.13;;;6.25;;
69305;SDS011;56427;51.580;4.656;2022-08-07T05:08:43;8.70;;;5.65;;
69305;SDS011;56427;51.580;4.656;2022-08-07T05:11:31;9.10;;;6.45;;
69305;SDS011;56427;51.580;4.656;2022-08-07T05:14:00;9.83;;;6.20;;
69305;SDS011;56427;51.580;4.656;2022-08-07T05:16:35;7.82;;;6.13;;
69305;SDS011;56427;51.580;4.656;2022-08-07T05:19:06;8.98;;;6.15;;
69305;SDS011;56427;51.580;4.656;2022-08-07T05:21:36;9.40;;;6.28;;
69305;SDS011;56427;51.580;4.656;2022-08-07T05:24:06;8.85;;;6.05;;
69305;SDS011;56427;51.580;4.656;2022-08-07T05:26:35;10.37;;;5.87;;
69305;SDS011;56427;51.580;4.656;2022-08-07T05:29:03;8.10;;;5.75;;
69305;SDS011;56427;51.580;4.656;2022-08-07T05:31:31;9.00;;;6.20;;
69305;SDS011;56427;51.580;4.656;2022-08-07T05:33:59;10.07;;;6.00;;
69305;SDS011;56427;51.580;4.656;2022-08-07T05:36:26;9.20;;;6.80;;
69305;SDS011;56427;51.580;4.656;2022-08-07T05:38:53;9.03;;;5.83;;
69305;SDS011;56427;51.580;4.656;2022-08-07T05:41:20;11.98;;;6.35;;
69305;SDS011;56427;51.580;4.656;2022-08-07T05:43:49;9.35;;;6.20;;
69305;SDS011;56427;51.580;4.656;2022-08-07T05:46:20;8.32;;;6.15;;
69305;SDS011;56427;51.580;4.656;2022-08-07T05:48:50;9.02;;;6.35;;
69305;SDS011;56427;51.580;4.656;2022-08-07T05:51:17;7.83;;;5.57;;
69305;SDS011;56427;51.580;4.656;2022-08-07T05:53:43;10.55;;;6.00;;
69305;SDS011;56427;51.580;4.656;2022-08-07T05:56:09;8.90;;;6.07;;
69305;SDS011;56427;51.580;4.656;2022-08-07T05:58:37;11.18;;;6.43;;
69305;SDS011;56427;51.580;4.656;2022-08-07T06:01:03;8.73;;;5.80;;
69305;SDS011;56427;51.580;4.656;2022-08-07T06:03:30;9.65;;;6.28;;
69305;SDS011;56427;51.580;4.656;2022-08-07T06:05:56;9.05;;;6.40;;
69305;SDS011;56427;51.580;4.656;2022-08-07T06:08:23;9.40;;;5.45;;
69305;SDS011;56427;51.580;4.656;2022-08-07T06:10:49;7.75;;;5.85;;
69305;SDS011;56427;51.580;4.656;2022-08-07T06:13:15;10.40;;;6.27;;
69305;SDS011;56427;51.580;4.656;2022-08-07T06:15:40;10.27;;;6.50;;
69305;SDS011;56427;51.580;4.656;2022-08-07T06:18:07;10.55;;;6.05;;
69305;SDS011;56427;51.580;4.656;2022-08-07T06:20:34;8.90;;;6.00;;
69305;SDS011;56427;51.580;4.656;2022-08-07T06:23:01;9.57;;;5.82;;
69305;SDS011;56427;51.580;4.656;2022-08-07T06:25:32;21.38;;;7.38;;
69305;SDS011;56427;51.580;4.656;2022-08-07T06:28:02;9.37;;;5.13;;
69305;SDS011;56427;51.580;4.656;2022-08-07T06:30:28;9.00;;;5.18;;
69305;SDS011;56427;51.580;4.656;2022-08-07T06:32:53;7.23;;;5.40;;
69305;SDS011;56427;51.580;4.656;2022-08-07T06:35:19;7.37;;;5.63;;
69305;SDS011;56427;51.580;4.656;2022-08-07T06:37:44;8.20;;;5.13;;
69305;SDS011;56427;51.580;4.656;2022-08-07T06:40:09;8.90;;;5.97;;
69305;SDS011;56427;51.580;4.656;2022-08-07T06:42:35;6.70;;;4.95;;
69305;SDS011;56427;51.580;4.656;2022-08-07T06:45:02;10.57;;;4.87;;
69305;SDS011;56427;51.580;4.656;2022-08-07T06:47:30;6.20;;;4.35;;
69305;SDS011;56427;51.580;4.656;2022-08-07T06:49:56;6.53;;;4.60;;
69305;SDS011;56427;51.580;4.656;2022-08-07T06:52:21;5.40;;;3.75;;
69305;SDS011;56427;51.580;4.656;2022-08-07T06:54:48;7.27;;;4.40;;
69305;SDS011;56427;51.580;4.656;2022-08-07T06:57:15;6.10;;;3.65;;
69305;SDS011;56427;51.580;4.656;2022-08-07T06:59:41;6.53;;;4.10;;
69305;SDS011;56427;51.580;4.656;2022-08-07T07:02:14;6.63;;;3.78;;
69305;SDS011;56427;51.580;4.656;2022-08-07T07:04:42;6.07;;;4.07;;
69305;SDS011;56427;51.580;4.656;2022-08-07T07:07:09;7.57;;;3.93;;
69305;SDS011;56427;51.580;4.656;2022-08-07T07:09:34;5.50;;;3.65;;
69305;SDS011;56427;51.580;4.656;2022-08-07T07:12:10;5.77;;;3.37;;
69305;SDS011;56427;51.580;4.656;2022-08-07T07:14:49;4.40;;;2.28;;
69305;SDS011;56427;51.580;4.656;2022-08-07T07:17:41;5.32;;;2.40;;
69305;SDS011;56427;51.580;4.656;2022-08-07T07:20:14;8.40;;;2.73;;
69305;SDS011;56427;51.580;4.656;2022-08-07T07:22:42;6.18;;;2.80;;
69305;SDS011;56427;51.580;4.656;2022-08-07T07:25:09;4.25;;;2.55;;
69305;SDS011;56427;51.580;4.656;2022-08-07T07:27:39;4.15;;;2.33;;
69305;SDS011;56427;51.580;4.656;2022-08-07T07:30:08;3.83;;;2.45;;
69305;SDS011;56427;51.580;4.656;2022-08-07T07:32:36;4.03;;;2.50;;
69305;SDS011;56427;51.580;4.656;2022-08-07T07:35:04;5.20;;;3.30;;
69305;SDS011;56427;51.580;4.656;2022-08-07T07:37:32;4.75;;;2.00;;
69305;SDS011;56427;51.580;4.656;2022-08-07T07:39:59;4.45;;;2.22;;
69305;SDS011;56427;51.580;4.656;2022-08-07T07:42:28;4.80;;;2.80;;
69305;SDS011;56427;51.580;4.656;2022-08-07T07:44:55;5.30;;;2.50;;
69305;SDS011;56427;51.580;4.656;2022-08-07T07:47:23;5.18;;;2.88;;
69305;SDS011;56427;51.580;4.656;2022-08-07T07:49:50;5.03;;;2.50;;
69305;SDS011;56427;51.580;4.656;2022-08-07T07:52:17;7.63;;;2.78;;
69305;SDS011;56427;51.580;4.656;2022-08-07T07:54:44;4.82;;;2.72;;
69305;SDS011;56427;51.580;4.656;2022-08-07T07:57:11;3.93;;;2.20;;
69305;SDS011;56427;51.580;4.656;2022-08-07T07:59:38;4.50;;;2.65;;
69305;SDS011;56427;51.580;4.656;2022-08-07T08:02:06;6.32;;;3.35;;
69305;SDS011;56427;51.580;4.656;2022-08-07T08:04:34;7.20;;;3.15;;
69305;SDS011;56427;51.580;4.656;2022-08-07T08:07:01;5.40;;;2.85;;
69305;SDS011;56427;51.580;4.656;2022-08-07T08:09:27;5.40;;;2.67;;
69305;SDS011;56427;51.580;4.656;2022-08-07T08:11:55;4.72;;;2.90;;
69305;SDS011;56427;51.580;4.656;2022-08-07T08:14:22;5.40;;;2.40;;
69305;SDS011;56427;51.580;4.656;2022-08-07T08:16:48;5.27;;;2.37;;
69305;SDS011;56427;51.580;4.656;2022-08-07T08:19:16;4.03;;;2.30;;
69305;SDS011;56427;51.580;4.656;2022-08-07T08:21:47;4.45;;;2.75;;
69305;SDS011;56427;51.580;4.656;2022-08-07T08:24:40;3.88;;;2.17;;
69305;SDS011;56427;51.580;4.656;2022-08-07T08:27:27;5.78;;;2.60;;
69305;SDS011;56427;51.580;4.656;2022-08-07T08:30:01;4.03;;;2.28;;
69305;SDS011;56427;51.580;4.656;2022-08-07T08:32:34;5.20;;;2.80;;
69305;SDS011;56427;51.580;4.656;2022-08-07T08:35:02;4.60;;;2.40;;
69305;SDS011;56427;51.580;4.656;2022-08-07T08:37:31;3.45;;;2.03;;
69305;SDS011;56427;51.580;4.656;2022-08-07T08:39:59;5.28;;;2.40;;
69305;SDS011;56427;51.580;4.656;2022-08-07T08:42:26;6.45;;;2.42;;
69305;SDS011;56427;51.580;4.656;2022-08-07T08:51:00;4.95;;;2.20;;
69305;SDS011;56427;51.580;4.656;2022-08-07T08:53:43;3.92;;;2.05;;
69305;SDS011;56427;51.580;4.656;2022-08-07T08:56:23;5.22;;;2.40;;
69305;SDS011;56427;51.580;4.656;2022-08-07T08:58:52;4.13;;;2.20;;
69305;SDS011;56427;51.580;4.656;2022-08-07T09:04:06;4.47;;;2.30;;
69305;SDS011;56427;51.580;4.656;2022-08-07T09:06:39;4.50;;;2.25;;
69305;SDS011;56427;51.580;4.656;2022-08-07T09:13:40;3.35;;;2.00;;
69305;SDS011;56427;51.580;4.656;2022-08-07T09:16:35;3.95;;;1.70;;
69305;SDS011;56427;51.580;4.656;2022-08-07T09:19:16;3.55;;;1.80;;
69305;SDS011;56427;51.580;4.656;2022-08-07T09:21:53;5.00;;;2.00;;
69305;SDS011;56427;51.580;4.656;2022-08-07T09:24:29;4.33;;;2.03;;
69305;SDS011;56427;51.580;4.656;2022-08-07T09:32:30;4.57;;;2.60;;
69305;SDS011;56427;51.580;4.656;2022-08-07T09:35:27;4.78;;;2.20;;
69305;SDS011;56427;51.580;4.656;2022-08-07T09:38:53;5.03;;;2.30;;
69305;SDS011;56427;51.580;4.656;2022-08-07T09:41:37;7.22;;;2.47;;
69305;SDS011;56427;51.580;4.656;2022-08-07T09:44:18;6.20;;;2.25;;
69305;SDS011;56427;51.580;4.656;2022-08-07T09:52:38;4.43;;;2.20;;
69305;SDS011;56427;51.580;4.656;2022-08-07T09:55:17;4.55;;;2.25;;
69305;SDS011;56427;51.580;4.656;2022-08-07T10:00:54;5.85;;;2.00;;
69305;SDS011;56427;51.580;4.656;2022-08-07T10:09:28;4.15;;;1.98;;
69305;SDS011;56427;51.580;4.656;2022-08-07T10:12:21;5.95;;;1.88;;
69305;SDS011;56427;51.580;4.656;2022-08-07T10:25:59;4.18;;;2.30;;
69305;SDS011;56427;51.580;4.656;2022-08-07T10:28:40;3.80;;;2.03;;
69305;SDS011;56427;51.580;4.656;2022-08-07T10:31:28;5.07;;;2.25;;
69305;SDS011;56427;51.580;4.656;2022-08-07T10:39:47;5.20;;;1.80;;
69305;SDS011;56427;51.580;4.656;2022-08-07T10:45:38;5.50;;;2.50;;
69305;SDS011;56427;51.580;4.656;2022-08-07T10:51:09;6.22;;;2.30;;
69305;SDS011;56427;51.580;4.656;2022-08-07T10:56:31;5.45;;;2.30;;
69305;SDS011;56427;51.580;4.656;2022-08-07T11:01:58;5.37;;;1.97;;
69305;SDS011;56427;51.580;4.656;2022-08-07T11:04:38;4.15;;;2.00;;
69305;SDS011;56427;51.580;4.656;2022-08-07T11:09:53;4.10;;;2.10;;
69305;SDS011;56427;51.580;4.656;2022-08-07T11:12:27;4.90;;;2.30;;
69305;SDS011;56427;51.580;4.656;2022-08-07T11:15:03;4.00;;;2.27;;
69305;SDS011;56427;51.580;4.656;2022-08-07T11:20:23;5.63;;;2.20;;
69305;SDS011;56427;51.580;4.656;2022-08-07T11:23:06;4.70;;;1.80;;
69305;SDS011;56427;51.580;4.656;2022-08-07T11:28:15;5.47;;;2.60;;
69305;SDS011;56427;51.580;4.656;2022-08-07T11:31:05;5.55;;;2.17;;
69305;SDS011;56427;51.580;4.656;2022-08-07T11:33:46;5.32;;;2.20;;
69305;SDS011;56427;51.580;4.656;2022-08-07T11:36:38;3.55;;;1.90;;
69305;SDS011;56427;51.580;4.656;2022-08-07T11:42:14;7.10;;;2.43;;
69305;SDS011;56427;51.580;4.656;2022-08-07T11:44:50;4.07;;;2.30;;
69305;SDS011;56427;51.580;4.656;2022-08-07T11:52:59;4.00;;;2.10;;
69305;SDS011;56427;51.580;4.656;2022-08-07T11:58:40;4.72;;;2.05;;
69305;SDS011;56427;51.580;4.656;2022-08-07T12:03:57;4.55;;;2.60;;
69305;SDS011;56427;51.580;4.656;2022-08-07T12:06:45;5.28;;;2.70;;
69305;SDS011;56427;51.580;4.656;2022-08-07T12:09:20;6.57;;;2.57;;
69305;SDS011;56427;51.580;4.656;2022-08-07T12:14:48;4.53;;;1.88;;
69305;SDS011;56427;51.580;4.656;2022-08-07T12:17:23;3.85;;;2.10;;
69305;SDS011;56427;51.580;4.656;2022-08-07T12:20:07;4.28;;;2.10;;
69305;SDS011;56427;51.580;4.656;2022-08-07T12:23:27;3.60;;;1.90;;
69305;SDS011;56427;51.580;4.656;2022-08-07T12:25:34;6.38;;;1.92;;
69305;SDS011;56427;51.580;4.656;2022-08-07T12:28:25;3.42;;;1.80;;
69305;SDS011;56427;51.580;4.656;2022-08-07T12:31:02;3.92;;;2.03;;
69305;SDS011;56427;51.580;4.656;2022-08-07T12:33:33;4.35;;;2.20;;
69305;SDS011;56427;51.580;4.656;2022-08-07T12:35:59;5.47;;;2.10;;
69305;SDS011;56427;51.580;4.656;2022-08-07T12:38:26;4.95;;;2.22;;
69305;SDS011;56427;51.580;4.656;2022-08-07T12:40:53;3.92;;;2.10;;
69305;SDS011;56427;51.580;4.656;2022-08-07T12:43:22;3.40;;;2.30;;
69305;SDS011;56427;51.580;4.656;2022-08-07T12:45:56;3.13;;;1.60;;
69305;SDS011;56427;51.580;4.656;2022-08-07T12:48:51;2.67;;;1.50;;
69305;SDS011;56427;51.580;4.656;2022-08-07T12:51:23;3.17;;;1.90;;
69305;SDS011;56427;51.580;4.656;2022-08-07T12:58:57;3.20;;;1.88;;
69305;SDS011;56427;51.580;4.656;2022-08-07T13:04:32;3.27;;;1.77;;
69305;SDS011;56427;51.580;4.656;2022-08-07T13:07:13;3.20;;;2.00;;
69305;SDS011;56427;51.580;4.656;2022-08-07T13:13:00;4.05;;;2.00;;
69305;SDS011;56427;51.580;4.656;2022-08-07T13:18:23;3.20;;;2.07;;
69305;SDS011;56427;51.580;4.656;2022-08-07T13:20:58;4.47;;;2.03;;
69305;SDS011;56427;51.580;4.656;2022-08-07T13:26:18;6.25;;;2.17;;
69305;SDS011;56427;51.580;4.656;2022-08-07T13:29:09;5.03;;;2.55;;
69305;SDS011;56427;51.580;4.656;2022-08-07T13:37:28;4.70;;;2.22;;
69305;SDS011;56427;51.580;4.656;2022-08-07T13:42:50;3.85;;;2.20;;
69305;SDS011;56427;51.580;4.656;2022-08-07T13:45:18;6.53;;;2.20;;
69305;SDS011;56427;51.580;4.656;2022-08-07T13:47:46;3.00;;;1.85;;
69305;SDS011;56427;51.580;4.656;2022-08-07T13:50:15;3.20;;;1.88;;
69305;SDS011;56427;51.580;4.656;2022-08-07T13:52:43;3.58;;;2.10;;
69305;SDS011;56427;51.580;4.656;2022-08-07T13:55:11;4.00;;;2.00;;
69305;SDS011;56427;51.580;4.656;2022-08-07T13:57:43;4.07;;;2.17;;
69305;SDS011;56427;51.580;4.656;2022-08-07T14:00:10;4.03;;;2.05;;
69305;SDS011;56427;51.580;4.656;2022-08-07T14:02:37;4.47;;;2.30;;
69305;SDS011;56427;51.580;4.656;2022-08-07T14:05:06;4.88;;;2.13;;
69305;SDS011;56427;51.580;4.656;2022-08-07T14:07:46;4.22;;;2.17;;
69305;SDS011;56427;51.580;4.656;2022-08-07T14:10:13;4.43;;;2.10;;
69305;SDS011;56427;51.580;4.656;2022-08-07T14:12:44;5.38;;;2.13;;
69305;SDS011;56427;51.580;4.656;2022-08-07T14:15:18;3.85;;;2.35;;
69305;SDS011;56427;51.580;4.656;2022-08-07T14:17:51;4.82;;;2.35;;
69305;SDS011;56427;51.580;4.656;2022-08-07T14:20:22;3.70;;;2.17;;
69305;SDS011;56427;51.580;4.656;2022-08-07T14:22:51;6.10;;;2.20;;
69305;SDS011;56427;51.580;4.656;2022-08-07T14:25:26;6.35;;;2.47;;
69305;SDS011;56427;51.580;4.656;2022-08-07T14:27:55;5.43;;;2.40;;
69305;SDS011;56427;51.580;4.656;2022-08-07T14:30:28;5.35;;;2.38;;
69305;SDS011;56427;51.580;4.656;2022-08-07T14:32:56;6.40;;;2.42;;
69305;SDS011;56427;51.580;4.656;2022-08-07T14:35:25;6.43;;;2.40;;
69305;SDS011;56427;51.580;4.656;2022-08-07T14:37:54;3.55;;;1.90;;
69305;SDS011;56427;51.580;4.656;2022-08-07T14:40:22;4.68;;;2.40;;
69305;SDS011;56427;51.580;4.656;2022-08-07T14:42:57;5.47;;;2.78;;
69305;SDS011;56427;51.580;4.656;2022-08-07T14:45:26;3.78;;;2.08;;
69305;SDS011;56427;51.580;4.656;2022-08-07T14:47:57;4.47;;;1.90;;
69305;SDS011;56427;51.580;4.656;2022-08-07T14:50:27;3.83;;;2.10;;
69305;SDS011;56427;51.580;4.656;2022-08-07T14:52:54;6.88;;;2.13;;
69305;SDS011;56427;51.580;4.656;2022-08-07T14:55:21;4.85;;;2.05;;
69305;SDS011;56427;51.580;4.656;2022-08-07T14:57:51;5.93;;;2.28;;
69305;SDS011;56427;51.580;4.656;2022-08-07T15:00:17;5.70;;;2.33;;
69305;SDS011;56427;51.580;4.656;2022-08-07T15:02:52;4.00;;;1.90;;
69305;SDS011;56427;51.580;4.656;2022-08-07T15:05:20;4.45;;;2.70;;
69305;SDS011;56427;51.580;4.656;2022-08-07T15:07:46;4.60;;;2.10;;
69305;SDS011;56427;51.580;4.656;2022-08-07T15:10:16;4.30;;;2.30;;
69305;SDS011;56427;51.580;4.656;2022-08-07T15:12:43;4.97;;;2.40;;
69305;SDS011;56427;51.580;4.656;2022-08-07T15:15:10;5.43;;;2.40;;
69305;SDS011;56427;51.580;4.656;2022-08-07T15:17:42;3.90;;;2.20;;
69305;SDS011;56427;51.580;4.656;2022-08-07T15:20:10;6.37;;;2.50;;
69305;SDS011;56427;51.580;4.656;2022-08-07T15:22:49;4.32;;;2.40;;
69305;SDS011;56427;51.580;4.656;2022-08-07T15:25:19;3.58;;;2.28;;
69305;SDS011;56427;51.580;4.656;2022-08-07T15:27:53;6.50;;;2.58;;
69305;SDS011;56427;51.580;4.656;2022-08-07T15:30:21;3.42;;;2.10;;
69305;SDS011;56427;51.580;4.656;2022-08-07T15:32:48;6.03;;;2.20;;
69305;SDS011;56427;51.580;4.656;2022-08-07T15:35:15;3.20;;;1.92;;
69305;SDS011;56427;51.580;4.656;2022-08-07T15:37:47;5.05;;;2.00;;
69305;SDS011;56427;51.580;4.656;2022-08-07T15:40:20;4.82;;;1.95;;
69305;SDS011;56427;51.580;4.656;2022-08-07T15:42:50;4.28;;;2.25;;
69305;SDS011;56427;51.580;4.656;2022-08-07T15:45:27;4.33;;;2.27;;
69305;SDS011;56427;51.580;4.656;2022-08-07T15:47:59;4.75;;;2.10;;
69305;SDS011;56427;51.580;4.656;2022-08-07T15:50:30;3.95;;;2.13;;
69305;SDS011;56427;51.580;4.656;2022-08-07T15:52:59;5.63;;;2.35;;
69305;SDS011;56427;51.580;4.656;2022-08-07T15:55:37;9.57;;;3.95;;
69305;SDS011;56427;51.580;4.656;2022-08-07T15:58:05;4.60;;;2.03;;
69305;SDS011;56427;51.580;4.656;2022-08-07T16:00:33;4.28;;;1.90;;
69305;SDS011;56427;51.580;4.656;2022-08-07T16:03:05;5.47;;;2.00;;
69305;SDS011;56427;51.580;4.656;2022-08-07T16:05:52;6.03;;;2.40;;
69305;SDS011;56427;51.580;4.656;2022-08-07T16:08:20;5.10;;;2.33;;
69305;SDS011;56427;51.580;4.656;2022-08-07T16:10:51;4.40;;;2.38;;
69305;SDS011;56427;51.580;4.656;2022-08-07T16:18:41;4.03;;;1.90;;
69305;SDS011;56427;51.580;4.656;2022-08-07T16:26:41;5.38;;;2.13;;
69305;SDS011;56427;51.580;4.656;2022-08-07T16:29:28;5.57;;;2.30;;
69305;SDS011;56427;51.580;4.656;2022-08-07T16:32:13;6.20;;;2.58;;
69305;SDS011;56427;51.580;4.656;2022-08-07T16:34:48;4.20;;;2.30;;
69305;SDS011;56427;51.580;4.656;2022-08-07T16:51:08;5.72;;;2.40;;
69305;SDS011;56427;51.580;4.656;2022-08-07T16:56:39;5.80;;;1.95;;
69305;SDS011;56427;51.580;4.656;2022-08-07T17:02:19;7.00;;;2.33;;
69305;SDS011;56427;51.580;4.656;2022-08-07T17:05:07;6.65;;;2.53;;
69305;SDS011;56427;51.580;4.656;2022-08-07T17:10:29;7.47;;;2.42;;
69305;SDS011;56427;51.580;4.656;2022-08-07T17:21:14;7.10;;;3.17;;
69305;SDS011;56427;51.580;4.656;2022-08-07T17:23:47;9.35;;;4.75;;
69305;SDS011;56427;51.580;4.656;2022-08-07T17:26:31;5.10;;;2.15;;
69305;SDS011;56427;51.580;4.656;2022-08-07T17:29:12;5.07;;;2.17;;
69305;SDS011;56427;51.580;4.656;2022-08-07T17:31:48;5.65;;;2.80;;
69305;SDS011;56427;51.580;4.656;2022-08-07T17:37:28;6.95;;;2.00;;
69305;SDS011;56427;51.580;4.656;2022-08-07T17:40:01;5.38;;;2.28;;
69305;SDS011;56427;51.580;4.656;2022-08-07T17:42:32;7.33;;;2.13;;
69305;SDS011;56427;51.580;4.656;2022-08-07T17:45:03;6.22;;;2.28;;
69305;SDS011;56427;51.580;4.656;2022-08-07T17:50:35;3.75;;;2.40;;
69305;SDS011;56427;51.580;4.656;2022-08-07T17:59:08;5.07;;;2.60;;
69305;SDS011;56427;51.580;4.656;2022-08-07T18:01:45;6.80;;;2.80;;
69305;SDS011;56427;51.580;4.656;2022-08-07T18:04:22;7.75;;;3.35;;